createdAt,value
2022-10-27T00:04:03.919Z,102149.78
2022-10-27T00:09:06.288Z,102150.75
2022-10-27T00:14:08.931Z,102156.00
2022-10-27T00:19:13.200Z,102165.75
2022-10-27T00:24:17.790Z,102163.41
2022-10-27T00:29:22.275Z,102157.38
2022-10-27T00:34:24.720Z,102173.84
2022-10-27T00:39:31.375Z,102167.78
2022-10-27T00:44:34.898Z,102159.19
2022-10-27T00:49:45.410Z,102171.09
2022-10-27T00:54:47.590Z,102179.38
2022-10-27T00:59:56.448Z,102186.91
2022-10-27T01:05:29.108Z,102192.66
2022-10-27T01:10:33.640Z,102196.66
2022-10-27T01:15:56.895Z,102196.00
2022-10-27T01:21:17.323Z,102215.13
2022-10-27T01:26:43.048Z,102208.25
2022-10-27T01:31:51.835Z,102205.75
2022-10-27T01:37:03.172Z,102210.44
2022-10-27T01:42:09.945Z,102219.66
2022-10-27T01:47:14.834Z,102224.19
2022-10-27T01:52:37.038Z,102215.47
2022-10-27T01:58:15.965Z,102227.38
2022-10-27T02:03:19.142Z,102245.69
2022-10-27T02:08:28.450Z,102253.06
2022-10-27T02:13:33.800Z,102251.75
2022-10-27T02:18:39.053Z,102242.81
2022-10-27T02:23:42.298Z,102246.69
2022-10-27T02:29:04.397Z,102251.38
2022-10-27T02:34:08.944Z,102242.81
2022-10-27T02:39:10.707Z,102262.13
2022-10-27T02:44:12.453Z,102264.44
2022-10-27T02:49:14.200Z,102277.38
2022-10-27T02:54:18.156Z,102285.88
2022-10-27T02:59:19.925Z,102285.38
2022-10-27T03:04:24.090Z,102287.53
2022-10-27T03:09:28.314Z,102287.19
2022-10-27T03:14:30.080Z,102278.75
2022-10-27T03:19:31.846Z,102288.66
2022-10-27T03:24:34.333Z,102289.97
2022-10-27T03:29:40.213Z,102289.16
2022-10-27T03:34:42.028Z,102285.78
2022-10-27T03:39:44.492Z,102283.09
2022-10-27T03:44:46.283Z,102275.38
2022-10-27T03:49:50.369Z,102276.38
2022-10-27T03:54:53.094Z,102274.69
2022-10-27T03:59:54.838Z,102284.75
2022-10-27T04:05:02.542Z,102288.22
2022-10-27T04:10:11.158Z,102286.69
2022-10-27T04:15:21.124Z,102289.22
2022-10-27T04:20:23.404Z,102297.97
2022-10-27T04:25:30.585Z,102298.47
2022-10-27T04:30:35.111Z,102300.84
2022-10-27T04:35:36.895Z,102301.38
2022-10-27T04:40:38.701Z,102292.31
2022-10-27T04:45:50.658Z,102283.44
2022-10-27T04:50:54.508Z,102295.78
2022-10-27T04:56:00.264Z,102293.09
2022-10-27T05:01:09.596Z,102278.59
2022-10-27T05:06:11.431Z,102268.66
2022-10-27T05:11:16.252Z,102273.50
2022-10-27T05:16:23.054Z,102280.88
2022-10-27T05:21:27.075Z,102275.50
2022-10-27T05:26:32.994Z,102282.16
2022-10-27T05:31:39.599Z,102284.03
2022-10-27T05:36:47.975Z,102285.97
2022-10-27T05:41:53.120Z,102287.97
2022-10-27T05:46:56.163Z,102291.53
2022-10-27T05:51:57.957Z,102290.50
2022-10-27T05:56:59.736Z,102291.13
2022-10-27T06:02:01.591Z,102289.94
2022-10-27T06:07:08.036Z,102286.25
2022-10-27T06:12:15.502Z,102284.72
2022-10-27T06:17:22.036Z,102291.25
2022-10-27T06:22:23.813Z,102299.16
2022-10-27T06:27:28.145Z,102292.09
2022-10-27T06:32:30.387Z,102297.44
2022-10-27T06:37:43.423Z,102305.16
2022-10-27T06:43:05.501Z,102315.59
2022-10-27T06:48:12.900Z,102310.94
2022-10-27T06:53:18.203Z,102323.03
2022-10-27T06:58:19.971Z,102326.22
2022-10-27T07:03:23.947Z,102333.41
2022-10-27T07:08:26.016Z,102335.59
2022-10-27T07:13:27.800Z,102333.13
2022-10-27T07:18:29.750Z,102349.25
2022-10-27T07:23:33.927Z,102349.72
2022-10-27T07:28:39.437Z,102338.00
2022-10-27T07:33:43.556Z,102341.88
2022-10-27T07:38:46.504Z,102343.09
2022-10-27T07:43:50.499Z,102334.56
2022-10-27T07:48:52.271Z,102340.47
2022-10-27T07:53:57.097Z,102333.00
2022-10-27T07:59:04.917Z,102327.84
2022-10-27T08:04:10.427Z,102314.25
2022-10-27T08:09:16.340Z,102322.34
2022-10-27T08:14:30.230Z,102326.38
2022-10-27T08:19:34.359Z,102322.41
2022-10-27T08:24:46.422Z,102325.13
2022-10-27T08:29:50.855Z,102325.28
2022-10-27T08:34:54.786Z,102330.97
2022-10-27T08:39:56.563Z,102325.28
2022-10-27T08:45:25.670Z,102325.44
2022-10-27T08:50:41.960Z,102320.53
2022-10-27T08:55:51.737Z,102318.19
2022-10-27T09:01:04.051Z,102318.50
2022-10-27T09:06:24.743Z,102318.50
2022-10-27T09:11:59.218Z,102321.50
2022-10-27T09:17:11.122Z,102325.63
2022-10-27T09:22:16.733Z,102323.06
2022-10-27T09:27:20.946Z,102318.94
2022-10-27T09:32:28.615Z,102311.44
2022-10-27T09:37:34.516Z,102307.50
2022-10-27T09:42:36.333Z,102318.88
2022-10-27T09:47:40.359Z,102314.56
2022-10-27T09:52:44.841Z,102305.06
2022-10-27T09:57:50.797Z,102311.91
2022-10-27T10:03:00.700Z,102306.44
2022-10-27T10:08:27.665Z,102306.69
2022-10-27T10:13:33.435Z,102306.56
2022-10-27T10:18:37.284Z,102298.91
2022-10-27T10:23:50.207Z,102292.75
2022-10-27T10:29:08.224Z,102281.22
2022-10-27T10:34:31.667Z,102274.06
2022-10-27T10:39:41.282Z,102275.06
2022-10-27T10:44:49.370Z,102275.84
2022-10-27T10:50:01.340Z,102276.28
2022-10-27T10:55:29.770Z,102276.03
2022-10-27T11:00:36.505Z,102265.28
2022-10-27T11:05:40.847Z,102268.47
2022-10-27T11:10:48.006Z,102266.84
2022-10-27T11:16:01.575Z,102259.03
2022-10-27T11:21:15.873Z,102253.00
2022-10-27T11:26:39.002Z,102246.78
2022-10-27T11:32:10.043Z,102242.84
2022-10-27T11:37:37.133Z,102240.34
2022-10-27T11:42:41.861Z,102240.38
2022-10-27T11:47:52.950Z,102232.34
2022-10-27T11:52:58.138Z,102236.59
2022-10-27T11:58:21.491Z,102222.66
2022-10-27T12:03:47.295Z,102231.44
2022-10-27T12:09:16.090Z,102222.50
2022-10-27T12:14:39.608Z,102216.94
2022-10-27T12:19:44.745Z,102210.25
2022-10-27T12:24:56.506Z,102217.78
2022-10-27T12:30:07.261Z,102215.50
2022-10-27T12:35:19.192Z,102201.13
2022-10-27T12:40:31.191Z,102191.28
2022-10-27T12:45:41.423Z,102186.91
2022-10-27T12:51:14.796Z,102171.19
2022-10-27T12:56:25.678Z,102178.69
2022-10-27T13:01:42.102Z,102167.44
2022-10-27T13:07:04.898Z,102164.53
2022-10-27T13:12:15.551Z,102145.31
2022-10-27T13:17:52.930Z,102142.19
2022-10-27T13:23:07.389Z,102138.03
2022-10-27T13:28:52.098Z,102124.09
2022-10-27T13:34:20.074Z,102118.44
2022-10-27T13:39:22.787Z,102123.22
2022-10-27T13:44:28.235Z,102114.66
2022-10-27T13:49:42.150Z,102117.34
2022-10-27T13:55:02.930Z,102100.44
2022-10-27T14:00:11.942Z,102101.88
2022-10-27T14:05:26.141Z,102093.72
2022-10-27T14:10:28.461Z,102094.75
2022-10-27T14:15:39.914Z,102093.78
2022-10-27T14:20:44.550Z,102098.56
2022-10-27T14:31:09.530Z,102088.75
2022-10-27T14:36:33.669Z,102075.84
2022-10-27T14:41:37.739Z,102063.94
2022-10-27T14:46:41.676Z,102067.47
2022-10-27T14:51:46.347Z,102063.09
2022-10-27T14:56:49.007Z,102068.69
2022-10-27T15:01:53.805Z,102065.31
2022-10-27T15:07:02.776Z,102057.38
2022-10-27T15:12:27.538Z,102053.16
2022-10-27T15:17:34.174Z,102050.59
2022-10-27T15:22:38.628Z,102034.53
2022-10-27T15:27:50.132Z,102040.78
2022-10-27T15:32:54.549Z,102041.38
2022-10-27T15:37:59.625Z,102035.72
2022-10-27T15:43:01.876Z,102041.94
2022-10-27T15:48:06.525Z,102000.09
2022-10-27T15:53:17.183Z,101991.53
2022-10-27T15:58:30.416Z,102008.78
2022-10-27T16:03:58.048Z,102014.81
2022-10-27T16:09:08.287Z,102006.66
2022-10-27T16:14:14.126Z,102008.31
2022-10-27T16:19:21.175Z,102006.81
2022-10-27T16:24:34.208Z,101995.13
2022-10-27T16:29:36.466Z,101983.03
2022-10-27T16:34:43.812Z,101976.97
2022-10-27T16:39:50.794Z,101966.75
2022-10-27T16:44:53.706Z,101963.63
2022-10-27T16:49:57.221Z,101961.53
2022-10-27T16:55:09.862Z,101954.63
2022-10-27T17:00:17.852Z,101942.53
2022-10-27T17:05:24.496Z,101943.59
2022-10-27T17:10:29.344Z,101938.34
2022-10-27T17:15:40.916Z,101927.94
2022-10-27T17:20:54.582Z,101924.78
2022-10-27T17:26:03.561Z,101919.16
2022-10-27T17:31:07.936Z,101916.44
2022-10-27T17:36:14.515Z,101907.88
2022-10-27T17:41:16.599Z,101913.28
2022-10-27T17:46:22.860Z,101901.84
2022-10-27T17:51:32.294Z,101903.06
2022-10-27T17:56:36.885Z,101911.38
2022-10-27T18:01:39.373Z,101919.88
2022-10-27T18:06:43.967Z,101920.66
2022-10-27T18:11:46.071Z,101926.66
2022-10-27T18:16:47.947Z,101926.25
2022-10-27T18:34:05.450Z,101935.34
2022-10-27T18:39:15.712Z,101939.22
2022-10-27T18:44:27.569Z,101937.09
2022-10-27T18:49:47.560Z,101939.50
2022-10-27T18:54:54.102Z,101938.25
2022-10-27T19:00:06.864Z,101930.91
2022-10-27T19:05:11.888Z,101928.59
2022-10-27T19:10:29.752Z,101936.63
2022-10-27T19:15:42.718Z,101927.41
2022-10-27T19:20:45.774Z,101925.47
2022-10-27T19:25:51.125Z,101925.22
2022-10-27T19:30:59.108Z,101920.34
2022-10-27T19:36:14.949Z,101919.91
2022-10-27T19:41:21.611Z,101915.53
2022-10-27T19:46:27.712Z,101909.50
2022-10-27T19:51:32.414Z,101900.56
2022-10-27T19:56:36.456Z,101908.00
2022-10-27T20:01:42.493Z,101909.88
2022-10-27T20:06:48.792Z,101909.50
2022-10-27T20:11:51.153Z,101897.22
2022-10-27T20:16:53.015Z,101896.56
2022-10-27T20:21:55.984Z,101890.34
2022-10-27T20:26:57.874Z,101893.63
2022-10-27T20:32:02.953Z,101899.84
2022-10-27T20:37:04.919Z,101893.63
2022-10-27T20:42:09.129Z,101893.44
2022-10-27T20:47:13.147Z,101895.69
2022-10-27T20:52:15.106Z,101911.84
2022-10-27T20:57:19.173Z,101909.72
2022-10-27T21:02:21.355Z,101911.38
2022-10-27T21:07:25.465Z,101915.50
2022-10-27T21:12:27.442Z,101910.47
2022-10-27T21:17:29.345Z,101901.31
2022-10-27T21:22:34.257Z,101903.06
2022-10-27T21:27:37.125Z,101897.78
2022-10-27T21:32:41.163Z,101914.06
2022-10-27T21:37:45.426Z,101914.31
2022-10-27T21:42:51.120Z,101924.34
2022-10-27T21:47:53.465Z,101916.84
2022-10-27T21:53:02.629Z,101919.72
2022-10-27T21:58:07.497Z,101924.47
2022-10-27T22:03:10.263Z,101937.56
2022-10-27T22:08:15.092Z,101933.00
2022-10-27T22:13:20.524Z,101934.22
2022-10-27T22:18:24.663Z,101936.91
2022-10-27T22:23:26.533Z,101927.16
2022-10-27T22:28:30.742Z,101922.78
2022-10-27T22:33:32.907Z,101918.03
2022-10-27T22:38:37.665Z,101915.19
2022-10-27T22:43:46.232Z,101916.94
2022-10-27T22:48:50.713Z,101912.50
2022-10-27T22:53:53.891Z,101933.94
2022-10-27T22:58:57.899Z,101930.88
2022-10-27T23:04:03.922Z,101936.72
2022-10-27T23:09:11.997Z,101935.72
2022-10-27T23:14:16.246Z,101942.09
2022-10-27T23:19:28.023Z,101951.22
2022-10-27T23:24:31.468Z,101949.09
2022-10-27T23:29:38.054Z,101942.41
2022-10-27T23:34:39.892Z,101940.44
2022-10-27T23:39:47.228Z,101959.22
2022-10-27T23:44:49.053Z,101955.59
2022-10-27T23:49:50.846Z,101955.28
2022-10-27T23:54:52.801Z,101942.38
2022-10-27T23:59:54.640Z,101932.50
